sensor_id;sensor_type;location;lat;lon;timestamp;P1;durP1;ratioP1;P2;durP2;ratioP2
29172;SDS011;16223;47.966;-1.616;2022-07-06T00:00:32;3.7624999999999997;;;3.4;;
29172;SDS011;16223;47.966;-1.616;2022-07-06T00:01:33;14.0;;;4.2875;;
29172;SDS011;16223;47.966;-1.616;2022-07-06T00:02:33;11.9;;;4.5875;;
29172;SDS011;16223;47.966;-1.616;2022-07-06T00:03:33;5.725;;;3.1375;;
29172;SDS011;16223;47.966;-1.616;2022-07-06T00:04:32;8.350000000000001;;;3.6625;;
29172;SDS011;16223;47.966;-1.616;2022-07-06T00:05:32;5.5625;;;3.25;;
29172;SDS011;16223;47.966;-1.616;2022-07-06T00:06:32;5.15;;;2.9625;;
29172;SDS011;16223;47.966;-1.616;2022-07-06T00:07:32;7.299999999999999;;;4.362500000000001;;
29172;SDS011;16223;47.966;-1.616;2022-07-06T00:08:32;8.375;;;4.4875;;
29172;SDS011;16223;47.966;-1.616;2022-07-06T00:09:32;12.5125;;;6.8125;;
29172;SDS011;16223;47.966;-1.616;2022-07-06T00:10:32;7.3999999999999995;;;4.387499999999999;;
29172;SDS011;16223;47.966;-1.616;2022-07-06T00:11:32;5.449999999999999;;;4.2;;
29172;SDS011;16223;47.966;-1.616;2022-07-06T00:12:32;7.525;;;4.2;;
29172;SDS011;16223;47.966;-1.616;2022-07-06T00:13:32;7.262500000000001;;;3.6625;;
29172;SDS011;16223;47.966;-1.616;2022-07-06T00:14:32;3.6874999999999996;;;2.9375;;
29172;SDS011;16223;47.966;-1.616;2022-07-06T00:15:33;10.6875;;;3.8625000000000003;;
29172;SDS011;16223;47.966;-1.616;2022-07-06T00:16:32;6.2125;;;3.6624999999999996;;
29172;SDS011;16223;47.966;-1.616;2022-07-06T00:17:32;13.5125;;;4.375;;
29172;SDS011;16223;47.966;-1.616;2022-07-06T00:18:33;9.975000000000001;;;3.6499999999999995;;
29172;SDS011;16223;47.966;-1.616;2022-07-06T00:19:32;11.05;;;3.6875;;
29172;SDS011;16223;47.966;-1.616;2022-07-06T00:20:32;7.887499999999999;;;4.775;;
29172;SDS011;16223;47.966;-1.616;2022-07-06T00:21:32;14.05;;;3.425;;
29172;SDS011;16223;47.966;-1.616;2022-07-06T00:22:32;7.700000000000001;;;4.1499999999999995;;
29172;SDS011;16223;47.966;-1.616;2022-07-06T00:23:33;4.5875;;;4.0875;;
29172;SDS011;16223;47.966;-1.616;2022-07-06T00:24:32;10.75;;;4.5625;;
29172;SDS011;16223;47.966;-1.616;2022-07-06T00:25:32;7.6;;;5.35;;
29172;SDS011;16223;47.966;-1.616;2022-07-06T00:26:33;11.1875;;;3.4625;;
29172;SDS011;16223;47.966;-1.616;2022-07-06T00:27:32;5.2875;;;3.9125000000000005;;
29172;SDS011;16223;47.966;-1.616;2022-07-06T00:28:32;23.7875;;;9.6625;;
29172;SDS011;16223;47.966;-1.616;2022-07-06T00:29:33;5.987500000000001;;;5.2;;
29172;SDS011;16223;47.966;-1.616;2022-07-06T00:30:33;7.2375;;;4.625;;
29172;SDS011;16223;47.966;-1.616;2022-07-06T00:31:33;7.6375;;;3.75;;
29172;SDS011;16223;47.966;-1.616;2022-07-06T00:32:33;21.375;;;5.8875;;
29172;SDS011;16223;47.966;-1.616;2022-07-06T00:33:32;6.3500000000000005;;;5.0375;;
29172;SDS011;16223;47.966;-1.616;2022-07-06T00:34:32;7.1875;;;3.9499999999999997;;
29172;SDS011;16223;47.966;-1.616;2022-07-06T00:35:32;6.5;;;3.675;;
29172;SDS011;16223;47.966;-1.616;2022-07-06T00:36:32;8.125;;;4.1000000000000005;;
29172;SDS011;16223;47.966;-1.616;2022-07-06T00:37:32;12.625;;;4.9875;;
29172;SDS011;16223;47.966;-1.616;2022-07-06T00:38:32;6.125;;;3.8499999999999996;;
29172;SDS011;16223;47.966;-1.616;2022-07-06T00:39:33;17.65;;;5.2;;
29172;SDS011;16223;47.966;-1.616;2022-07-06T00:40:32;10.175;;;4.5125;;
29172;SDS011;16223;47.966;-1.616;2022-07-06T00:41:32;14.9;;;4.1625;;
29172;SDS011;16223;47.966;-1.616;2022-07-06T00:42:38;10.15;;;4.5;;
29172;SDS011;16223;47.966;-1.616;2022-07-06T00:43:46;6.9125;;;4.574999999999999;;
29172;SDS011;16223;47.966;-1.616;2022-07-06T00:44:32;10.25;;;5.075;;
29172;SDS011;16223;47.966;-1.616;2022-07-06T00:45:32;13.6;;;4.35;;
29172;SDS011;16223;47.966;-1.616;2022-07-06T00:46:32;7.262499999999999;;;4.275;;
29172;SDS011;16223;47.966;-1.616;2022-07-06T00:47:32;9.7875;;;4.9125;;
29172;SDS011;16223;47.966;-1.616;2022-07-06T00:48:32;9.512500000000001;;;4.9375;;
29172;SDS011;16223;47.966;-1.616;2022-07-06T00:49:32;6.8500000000000005;;;4.325;;
29172;SDS011;16223;47.966;-1.616;2022-07-06T00:50:32;11.4375;;;4.0875;;
29172;SDS011;16223;47.966;-1.616;2022-07-06T00:51:33;9.275;;;4.65;;
29172;SDS011;16223;47.966;-1.616;2022-07-06T00:52:32;17.6625;;;6.8125;;
29172;SDS011;16223;47.966;-1.616;2022-07-06T00:53:32;4.975;;;3.85;;
29172;SDS011;16223;47.966;-1.616;2022-07-06T00:54:32;6.775;;;3.9375;;
29172;SDS011;16223;47.966;-1.616;2022-07-06T00:55:33;6.05;;;3.95;;
29172;SDS011;16223;47.966;-1.616;2022-07-06T00:56:33;19.525;;;6.7875000000000005;;
29172;SDS011;16223;47.966;-1.616;2022-07-06T00:57:32;8.537500000000001;;;4.4;;
29172;SDS011;16223;47.966;-1.616;2022-07-06T00:58:33;11.2375;;;5.1125;;
29172;SDS011;16223;47.966;-1.616;2022-07-06T00:59:33;8.2;;;3.55;;
29172;SDS011;16223;47.966;-1.616;2022-07-06T01:00:33;11.0125;;;4.525;;
29172;SDS011;16223;47.966;-1.616;2022-07-06T01:01:33;13.924999999999999;;;5.8125;;
29172;SDS011;16223;47.966;-1.616;2022-07-06T01:02:32;19.5375;;;6.2;;
29172;SDS011;16223;47.966;-1.616;2022-07-06T01:03:32;7.7125;;;3.6125000000000003;;
29172;SDS011;16223;47.966;-1.616;2022-07-06T01:04:33;9.7625;;;4.512499999999999;;
29172;SDS011;16223;47.966;-1.616;2022-07-06T01:05:32;14.8875;;;6.2;;
29172;SDS011;16223;47.966;-1.616;2022-07-06T01:06:33;6.137500000000001;;;4.25;;
29172;SDS011;16223;47.966;-1.616;2022-07-06T01:07:32;10.925;;;5.487500000000001;;
29172;SDS011;16223;47.966;-1.616;2022-07-06T01:08:32;11.475000000000001;;;6.012499999999999;;
29172;SDS011;16223;47.966;-1.616;2022-07-06T01:09:33;11.462499999999999;;;5.55;;
29172;SDS011;16223;47.966;-1.616;2022-07-06T01:10:32;8.2;;;4.3625;;
29172;SDS011;16223;47.966;-1.616;2022-07-06T01:11:32;11.05;;;3.7874999999999996;;
29172;SDS011;16223;47.966;-1.616;2022-07-06T01:12:34;18.9375;;;6.5125;;
29172;SDS011;16223;47.966;-1.616;2022-07-06T01:13:32;8.549999999999999;;;5.7375;;
29172;SDS011;16223;47.966;-1.616;2022-07-06T01:14:33;9.5625;;;6.762499999999999;;
29172;SDS011;16223;47.966;-1.616;2022-07-06T01:15:32;10.3625;;;6.887499999999999;;
29172;SDS011;16223;47.966;-1.616;2022-07-06T01:16:32;12.2625;;;5.8375;;
29172;SDS011;16223;47.966;-1.616;2022-07-06T01:17:32;10.0;;;6.0;;
29172;SDS011;16223;47.966;-1.616;2022-07-06T01:18:33;9.425;;;6.225;;
29172;SDS011;16223;47.966;-1.616;2022-07-06T01:19:32;22.2625;;;6.4375;;
29172;SDS011;16223;47.966;-1.616;2022-07-06T01:20:32;10.7875;;;6.275;;
29172;SDS011;16223;47.966;-1.616;2022-07-06T01:21:32;8.275;;;5.4125;;
29172;SDS011;16223;47.966;-1.616;2022-07-06T01:22:32;12.175;;;6.0875;;
29172;SDS011;16223;47.966;-1.616;2022-07-06T01:23:32;11.6375;;;5.9624999999999995;;
29172;SDS011;16223;47.966;-1.616;2022-07-06T01:24:34;14.75;;;6.275;;
29172;SDS011;16223;47.966;-1.616;2022-07-06T01:25:33;19.65;;;5.7375;;
29172;SDS011;16223;47.966;-1.616;2022-07-06T01:26:32;13.25;;;5.9625;;
29172;SDS011;16223;47.966;-1.616;2022-07-06T01:27:33;17.7;;;5.9375;;
29172;SDS011;16223;47.966;-1.616;2022-07-06T01:28:32;9.3375;;;4.987500000000001;;
29172;SDS011;16223;47.966;-1.616;2022-07-06T01:29:33;16.4;;;5.95;;
29172;SDS011;16223;47.966;-1.616;2022-07-06T01:30:32;15.625;;;6.387499999999999;;
29172;SDS011;16223;47.966;-1.616;2022-07-06T01:31:32;7.1000000000000005;;;4.5875;;
29172;SDS011;16223;47.966;-1.616;2022-07-06T01:32:32;18.175;;;5.6;;
29172;SDS011;16223;47.966;-1.616;2022-07-06T01:33:32;14.8;;;5.1875;;
29172;SDS011;16223;47.966;-1.616;2022-07-06T01:34:32;25.775;;;5.425;;
29172;SDS011;16223;47.966;-1.616;2022-07-06T01:35:32;9.8;;;4.8;;
29172;SDS011;16223;47.966;-1.616;2022-07-06T01:36:32;10.2125;;;5.5125;;
29172;SDS011;16223;47.966;-1.616;2022-07-06T01:37:32;10.3;;;5.75;;
29172;SDS011;16223;47.966;-1.616;2022-07-06T01:38:32;8.7625;;;4.9625;;
29172;SDS011;16223;47.966;-1.616;2022-07-06T01:39:32;12.0625;;;5.55;;
29172;SDS011;16223;47.966;-1.616;2022-07-06T01:40:32;8.725000000000001;;;5.825;;
29172;SDS011;16223;47.966;-1.616;2022-07-06T01:41:32;9.6375;;;5.4625;;
29172;SDS011;16223;47.966;-1.616;2022-07-06T01:42:33;12.412500000000001;;;5.3;;
29172;SDS011;16223;47.966;-1.616;2022-07-06T01:43:32;13.75;;;6.2;;
29172;SDS011;16223;47.966;-1.616;2022-07-06T01:44:32;15.1875;;;6.75;;
29172;SDS011;16223;47.966;-1.616;2022-07-06T01:45:32;21.275;;;6.0875;;
29172;SDS011;16223;47.966;-1.616;2022-07-06T01:46:33;12.975000000000001;;;5.2125;;
29172;SDS011;16223;47.966;-1.616;2022-07-06T01:47:33;27.7125;;;10.7375;;
29172;SDS011;16223;47.966;-1.616;2022-07-06T01:48:32;12.4375;;;5.4125;;
29172;SDS011;16223;47.966;-1.616;2022-07-06T01:49:32;19.0875;;;6.9125;;
29172;SDS011;16223;47.966;-1.616;2022-07-06T01:50:32;8.825;;;6.6625;;
29172;SDS011;16223;47.966;-1.616;2022-07-06T01:51:32;12.7125;;;6.775;;
29172;SDS011;16223;47.966;-1.616;2022-07-06T01:52:32;13.8125;;;6.55;;
29172;SDS011;16223;47.966;-1.616;2022-07-06T01:53:32;9.075000000000001;;;6.075;;
29172;SDS011;16223;47.966;-1.616;2022-07-06T01:54:33;20.575;;;5.9375;;
29172;SDS011;16223;47.966;-1.616;2022-07-06T01:55:32;17.425;;;6.862500000000001;;
29172;SDS011;16223;47.966;-1.616;2022-07-06T01:56:32;30.212500000000002;;;8.2;;
29172;SDS011;16223;47.966;-1.616;2022-07-06T01:57:32;12.087499999999999;;;6.362500000000001;;
29172;SDS011;16223;47.966;-1.616;2022-07-06T01:58:32;15.6375;;;6.575;;
29172;SDS011;16223;47.966;-1.616;2022-07-06T01:59:32;14.649999999999999;;;5.325;;
29172;SDS011;16223;47.966;-1.616;2022-07-06T02:00:32;21.5875;;;10.0625;;
29172;SDS011;16223;47.966;-1.616;2022-07-06T02:01:32;13.575;;;6.9125;;
29172;SDS011;16223;47.966;-1.616;2022-07-06T02:02:32;9.5625;;;5.5625;;
29172;SDS011;16223;47.966;-1.616;2022-07-06T02:03:32;10.0125;;;5.55;;
29172;SDS011;16223;47.966;-1.616;2022-07-06T02:04:32;34.025000000000006;;;10.2375;;
29172;SDS011;16223;47.966;-1.616;2022-07-06T02:05:32;18.6125;;;7.0625;;
29172;SDS011;16223;47.966;-1.616;2022-07-06T02:06:32;8.375;;;5.3125;;
29172;SDS011;16223;47.966;-1.616;2022-07-06T02:07:32;11.8625;;;5.737500000000001;;
29172;SDS011;16223;47.966;-1.616;2022-07-06T02:08:33;17.675;;;6.5375;;
29172;SDS011;16223;47.966;-1.616;2022-07-06T02:09:33;13.6875;;;6.112500000000001;;
29172;SDS011;16223;47.966;-1.616;2022-07-06T02:10:32;19.0625;;;6.525;;
29172;SDS011;16223;47.966;-1.616;2022-07-06T02:11:32;16.912499999999998;;;7.762499999999999;;
29172;SDS011;16223;47.966;-1.616;2022-07-06T02:12:32;11.0375;;;6.475;;
29172;SDS011;16223;47.966;-1.616;2022-07-06T02:13:32;12.6375;;;7.074999999999999;;
29172;SDS011;16223;47.966;-1.616;2022-07-06T02:14:32;15.675;;;5.5875;;
29172;SDS011;16223;47.966;-1.616;2022-07-06T02:15:32;12.162500000000001;;;5.8625;;
29172;SDS011;16223;47.966;-1.616;2022-07-06T02:16:32;16.674999999999997;;;8.5875;;
29172;SDS011;16223;47.966;-1.616;2022-07-06T02:17:32;10.9875;;;5.3375;;
29172;SDS011;16223;47.966;-1.616;2022-07-06T02:18:33;12.325;;;6.525;;
29172;SDS011;16223;47.966;-1.616;2022-07-06T02:19:32;13.425;;;5.9;;
29172;SDS011;16223;47.966;-1.616;2022-07-06T02:20:32;24.85;;;7.5375;;
29172;SDS011;16223;47.966;-1.616;2022-07-06T02:21:32;22.412499999999998;;;7.1625000000000005;;
29172;SDS011;16223;47.966;-1.616;2022-07-06T02:22:32;15.2875;;;6.5;;
29172;SDS011;16223;47.966;-1.616;2022-07-06T02:23:32;18.4625;;;6.55;;
29172;SDS011;16223;47.966;-1.616;2022-07-06T02:24:32;15.8625;;;6.0625;;
29172;SDS011;16223;47.966;-1.616;2022-07-06T02:25:32;11.9125;;;6.9375;;
29172;SDS011;16223;47.966;-1.616;2022-07-06T02:26:42;20.85;;;6.5;;
29172;SDS011;16223;47.966;-1.616;2022-07-06T02:27:32;16.075000000000003;;;7.125;;
29172;SDS011;16223;47.966;-1.616;2022-07-06T02:28:32;14.2625;;;6.5375000000000005;;
29172;SDS011;16223;47.966;-1.616;2022-07-06T02:29:32;21.45;;;7.675;;
29172;SDS011;16223;47.966;-1.616;2022-07-06T02:30:32;16.200000000000003;;;7.725;;
29172;SDS011;16223;47.966;-1.616;2022-07-06T02:31:32;19.6375;;;7.7250000000000005;;
29172;SDS011;16223;47.966;-1.616;2022-07-06T02:32:32;14.337499999999999;;;6.4;;
29172;SDS011;16223;47.966;-1.616;2022-07-06T02:33:32;16.25;;;7.237500000000001;;
29172;SDS011;16223;47.966;-1.616;2022-07-06T02:34:32;11.925;;;6.925000000000001;;
29172;SDS011;16223;47.966;-1.616;2022-07-06T02:35:32;18.425;;;7.7875000000000005;;
29172;SDS011;16223;47.966;-1.616;2022-07-06T02:36:32;16.6;;;8.850000000000001;;
29172;SDS011;16223;47.966;-1.616;2022-07-06T02:37:32;18.5125;;;8.1375;;
29172;SDS011;16223;47.966;-1.616;2022-07-06T02:38:32;16.7625;;;8.35;;
29172;SDS011;16223;47.966;-1.616;2022-07-06T02:39:32;10.299999999999999;;;5.75;;
29172;SDS011;16223;47.966;-1.616;2022-07-06T02:40:32;24.012500000000003;;;8.649999999999999;;
29172;SDS011;16223;47.966;-1.616;2022-07-06T02:41:32;20.2875;;;6.9624999999999995;;
29172;SDS011;16223;47.966;-1.616;2022-07-06T02:42:36;17.0;;;6.1625;;
29172;SDS011;16223;47.966;-1.616;2022-07-06T02:43:32;13.762500000000001;;;6.050000000000001;;
29172;SDS011;16223;47.966;-1.616;2022-07-06T02:44:32;18.0625;;;7.3125;;
29172;SDS011;16223;47.966;-1.616;2022-07-06T02:45:32;27.924999999999997;;;9.1;;
29172;SDS011;16223;47.966;-1.616;2022-07-06T02:46:32;15.950000000000001;;;7.824999999999999;;
29172;SDS011;16223;47.966;-1.616;2022-07-06T02:47:32;22.6;;;9.2375;;
29172;SDS011;16223;47.966;-1.616;2022-07-06T02:48:32;13.75;;;6.825000000000001;;
29172;SDS011;16223;47.966;-1.616;2022-07-06T02:49:32;17.6125;;;7.487500000000001;;
29172;SDS011;16223;47.966;-1.616;2022-07-06T02:50:32;17.8625;;;6.375;;
29172;SDS011;16223;47.966;-1.616;2022-07-06T02:51:32;16.55;;;7.500000000000001;;
29172;SDS011;16223;47.966;-1.616;2022-07-06T02:52:32;15.9875;;;6.324999999999999;;
29172;SDS011;16223;47.966;-1.616;2022-07-06T02:53:32;20.5;;;8.0875;;
29172;SDS011;16223;47.966;-1.616;2022-07-06T02:54:32;14.95;;;7.375;;
29172;SDS011;16223;47.966;-1.616;2022-07-06T02:55:32;17.7125;;;7.8125;;
29172;SDS011;16223;47.966;-1.616;2022-07-06T02:56:32;14.9;;;8.162500000000001;;
29172;SDS011;16223;47.966;-1.616;2022-07-06T02:57:32;11.775;;;6.5125;;
29172;SDS011;16223;47.966;-1.616;2022-07-06T02:58:33;21.4125;;;9.2375;;
29172;SDS011;16223;47.966;-1.616;2022-07-06T02:59:32;19.637500000000003;;;8.3375;;
29172;SDS011;16223;47.966;-1.616;2022-07-06T03:00:32;21.2625;;;8.674999999999999;;
29172;SDS011;16223;47.966;-1.616;2022-07-06T03:01:32;20.475;;;8.399999999999999;;
29172;SDS011;16223;47.966;-1.616;2022-07-06T03:02:32;16.0875;;;6.675;;
29172;SDS011;16223;47.966;-1.616;2022-07-06T03:03:32;10.662500000000001;;;7.025;;
29172;SDS011;16223;47.966;-1.616;2022-07-06T03:04:33;22.049999999999997;;;9.8625;;
29172;SDS011;16223;47.966;-1.616;2022-07-06T03:05:32;16.237499999999997;;;8.1625;;
29172;SDS011;16223;47.966;-1.616;2022-07-06T03:06:32;17.1625;;;8.225;;
29172;SDS011;16223;47.966;-1.616;2022-07-06T03:07:32;18.1;;;6.6;;
29172;SDS011;16223;47.966;-1.616;2022-07-06T03:08:32;19.200000000000003;;;8.2125;;
29172;SDS011;16223;47.966;-1.616;2022-07-06T03:09:32;21.712500000000002;;;7.5375;;
29172;SDS011;16223;47.966;-1.616;2022-07-06T03:10:32;16.3125;;;8.1875;;
29172;SDS011;16223;47.966;-1.616;2022-07-06T03:11:32;23.4125;;;8.462499999999999;;
29172;SDS011;16223;47.966;-1.616;2022-07-06T03:12:32;34.65;;;8.6375;;
29172;SDS011;16223;47.966;-1.616;2022-07-06T03:13:32;23.05;;;8.912500000000001;;
29172;SDS011;16223;47.966;-1.616;2022-07-06T03:14:32;17.3625;;;7.2875;;
29172;SDS011;16223;47.966;-1.616;2022-07-06T03:15:32;22.212500000000002;;;8.1875;;
29172;SDS011;16223;47.966;-1.616;2022-07-06T03:16:32;19.825000000000003;;;7.0875;;
29172;SDS011;16223;47.966;-1.616;2022-07-06T03:17:32;16.625;;;7.1625;;
29172;SDS011;16223;47.966;-1.616;2022-07-06T03:18:32;13.9375;;;8.025;;
29172;SDS011;16223;47.966;-1.616;2022-07-06T03:19:32;18.3625;;;7.175000000000001;;
29172;SDS011;16223;47.966;-1.616;2022-07-06T03:20:35;18.275000000000002;;;8.2875;;
29172;SDS011;16223;47.966;-1.616;2022-07-06T03:21:33;15.6375;;;7.55;;
29172;SDS011;16223;47.966;-1.616;2022-07-06T03:22:32;15.1875;;;8.1375;;
29172;SDS011;16223;47.966;-1.616;2022-07-06T03:23:32;15.975000000000001;;;7.75;;
29172;SDS011;16223;47.966;-1.616;2022-07-06T03:24:32;16.424999999999997;;;7.875;;
29172;SDS011;16223;47.966;-1.616;2022-07-06T03:25:32;25.6625;;;9.575;;
29172;SDS011;16223;47.966;-1.616;2022-07-06T03:26:32;14.0875;;;8.325;;
29172;SDS011;16223;47.966;-1.616;2022-07-06T03:27:33;20.1875;;;8.3;;
29172;SDS011;16223;47.966;-1.616;2022-07-06T03:28:32;22.2375;;;8.2375;;
29172;SDS011;16223;47.966;-1.616;2022-07-06T03:29:32;21.875;;;8.5125;;
29172;SDS011;16223;47.966;-1.616;2022-07-06T03:30:32;34.1;;;9.8875;;
29172;SDS011;16223;47.966;-1.616;2022-07-06T03:31:32;32.637499999999996;;;9.9125;;
29172;SDS011;16223;47.966;-1.616;2022-07-06T03:32:32;27.0;;;9.35;;
29172;SDS011;16223;47.966;-1.616;2022-07-06T03:33:32;15.05;;;8.2375;;
29172;SDS011;16223;47.966;-1.616;2022-07-06T03:34:33;14.35;;;6.8125;;
29172;SDS011;16223;47.966;-1.616;2022-07-06T03:35:32;39.0875;;;13.024999999999999;;
29172;SDS011;16223;47.966;-1.616;2022-07-06T03:36:33;24.3375;;;9.35;;
29172;SDS011;16223;47.966;-1.616;2022-07-06T03:37:32;20.875;;;9.2;;
29172;SDS011;16223;47.966;-1.616;2022-07-06T03:38:32;25.975;;;9.5;;
29172;SDS011;16223;47.966;-1.616;2022-07-06T03:39:32;19.675;;;8.6;;
29172;SDS011;16223;47.966;-1.616;2022-07-06T03:40:33;20.125;;;10.4375;;
29172;SDS011;16223;47.966;-1.616;2022-07-06T03:41:33;25.4125;;;9.175;;
29172;SDS011;16223;47.966;-1.616;2022-07-06T03:42:32;19.137500000000003;;;6.4;;
29172;SDS011;16223;47.966;-1.616;2022-07-06T03:43:33;25.8875;;;8.1375;;
29172;SDS011;16223;47.966;-1.616;2022-07-06T03:44:32;22.5875;;;8.55;;
29172;SDS011;16223;47.966;-1.616;2022-07-06T03:45:32;22.7625;;;8.4;;
29172;SDS011;16223;47.966;-1.616;2022-07-06T03:46:32;19.0125;;;10.6125;;
29172;SDS011;16223;47.966;-1.616;2022-07-06T03:47:32;27.7125;;;8.975000000000001;;
29172;SDS011;16223;47.966;-1.616;2022-07-06T03:48:42;18.287499999999998;;;7.2875;;
29172;SDS011;16223;47.966;-1.616;2022-07-06T03:49:32;28.25;;;11.325;;
29172;SDS011;16223;47.966;-1.616;2022-07-06T03:50:32;14.8375;;;8.8875;;
29172;SDS011;16223;47.966;-1.616;2022-07-06T03:51:32;22.6;;;9.675;;
29172;SDS011;16223;47.966;-1.616;2022-07-06T03:52:33;21.125;;;8.712499999999999;;
29172;SDS011;16223;47.966;-1.616;2022-07-06T03:53:32;21.1875;;;7.387499999999999;;
29172;SDS011;16223;47.966;-1.616;2022-07-06T03:54:32;25.5;;;9.8125;;
29172;SDS011;16223;47.966;-1.616;2022-07-06T03:55:32;25.025;;;10.112499999999999;;
29172;SDS011;16223;47.966;-1.616;2022-07-06T03:56:32;23.1875;;;7.425000000000001;;
29172;SDS011;16223;47.966;-1.616;2022-07-06T03:57:33;24.5;;;9.3;;
29172;SDS011;16223;47.966;-1.616;2022-07-06T03:58:32;22.299999999999997;;;9.412500000000001;;
29172;SDS011;16223;47.966;-1.616;2022-07-06T03:59:32;26.2875;;;7.3375;;
29172;SDS011;16223;47.966;-1.616;2022-07-06T04:00:32;17.0125;;;8.8875;;
29172;SDS011;16223;47.966;-1.616;2022-07-06T04:01:32;26.3125;;;13.3;;
29172;SDS011;16223;47.966;-1.616;2022-07-06T04:02:32;37.5;;;10.8875;;
29172;SDS011;16223;47.966;-1.616;2022-07-06T04:03:32;21.1875;;;10.175;;
29172;SDS011;16223;47.966;-1.616;2022-07-06T04:04:33;30.0;;;10.3125;;
29172;SDS011;16223;47.966;-1.616;2022-07-06T04:05:42;24.775;;;9.475;;
29172;SDS011;16223;47.966;-1.616;2022-07-06T04:06:32;25.587500000000002;;;10.5625;;
29172;SDS011;16223;47.966;-1.616;2022-07-06T04:07:32;19.4;;;8.825000000000001;;
29172;SDS011;16223;47.966;-1.616;2022-07-06T04:08:32;32.025000000000006;;;10.25;;
29172;SDS011;16223;47.966;-1.616;2022-07-06T04:09:32;26.537499999999998;;;8.7;;
29172;SDS011;16223;47.966;-1.616;2022-07-06T04:10:35;31.212500000000002;;;8.35;;
29172;SDS011;16223;47.966;-1.616;2022-07-06T04:11:32;32.775;;;12.6375;;
29172;SDS011;16223;47.966;-1.616;2022-07-06T04:12:39;28.4625;;;10.037500000000001;;
29172;SDS011;16223;47.966;-1.616;2022-07-06T04:13:33;21.775;;;9.975;;
29172;SDS011;16223;47.966;-1.616;2022-07-06T04:14:32;26.7875;;;11.5;;
29172;SDS011;16223;47.966;-1.616;2022-07-06T04:15:32;23.325;;;9.9875;;
29172;SDS011;16223;47.966;-1.616;2022-07-06T04:16:32;24.237499999999997;;;8.7125;;
29172;SDS011;16223;47.966;-1.616;2022-07-06T04:17:32;23.375000000000004;;;9.275;;
29172;SDS011;16223;47.966;-1.616;2022-07-06T04:18:42;27.824999999999996;;;10.8125;;
29172;SDS011;16223;47.966;-1.616;2022-07-06T04:19:32;19.0625;;;9.6625;;
29172;SDS011;16223;47.966;-1.616;2022-07-06T04:20:33;19.875;;;8.0;;
29172;SDS011;16223;47.966;-1.616;2022-07-06T04:21:32;18.4625;;;9.2625;;
29172;SDS011;16223;47.966;-1.616;2022-07-06T04:22:32;19.5875;;;9.15;;
29172;SDS011;16223;47.966;-1.616;2022-07-06T04:23:33;23.362499999999997;;;9.925;;
29172;SDS011;16223;47.966;-1.616;2022-07-06T04:24:33;20.55;;;8.65;;
29172;SDS011;16223;47.966;-1.616;2022-07-06T04:25:33;22.6125;;;8.0625;;
29172;SDS011;16223;47.966;-1.616;2022-07-06T04:26:32;23.375;;;9.9625;;
29172;SDS011;16223;47.966;-1.616;2022-07-06T04:27:32;25.012500000000003;;;8.912500000000001;;
29172;SDS011;16223;47.966;-1.616;2022-07-06T04:28:32;30.125;;;8.9875;;
29172;SDS011;16223;47.966;-1.616;2022-07-06T04:29:32;25.9125;;;8.675;;
29172;SDS011;16223;47.966;-1.616;2022-07-06T04:30:32;28.1;;;10.2375;;
29172;SDS011;16223;47.966;-1.616;2022-07-06T04:31:32;28.475;;;9.5625;;
29172;SDS011;16223;47.966;-1.616;2022-07-06T04:32:32;26.712500000000002;;;10.1375;;
29172;SDS011;16223;47.966;-1.616;2022-07-06T04:33:33;31.1;;;10.8625;;
29172;SDS011;16223;47.966;-1.616;2022-07-06T04:34:32;32.837500000000006;;;10.4625;;
29172;SDS011;16223;47.966;-1.616;2022-07-06T04:35:32;24.037499999999998;;;10.1875;;
29172;SDS011;16223;47.966;-1.616;2022-07-06T04:36:32;28.3625;;;10.7625;;
29172;SDS011;16223;47.966;-1.616;2022-07-06T04:37:33;24.762500000000003;;;8.625;;
29172;SDS011;16223;47.966;-1.616;2022-07-06T04:38:32;25.55;;;9.4375;;
29172;SDS011;16223;47.966;-1.616;2022-07-06T04:39:33;22.775;;;8.6875;;
29172;SDS011;16223;47.966;-1.616;2022-07-06T04:40:32;16.95;;;8.237499999999999;;
29172;SDS011;16223;47.966;-1.616;2022-07-06T04:41:32;17.9;;;8.3625;;
29172;SDS011;16223;47.966;-1.616;2022-07-06T04:42:32;20.1125;;;9.5125;;
29172;SDS011;16223;47.966;-1.616;2022-07-06T04:43:32;17.450000000000003;;;9.425;;
29172;SDS011;16223;47.966;-1.616;2022-07-06T04:44:33;25.7625;;;11.2375;;
29172;SDS011;16223;47.966;-1.616;2022-07-06T04:45:32;28.0625;;;10.0875;;
29172;SDS011;16223;47.966;-1.616;2022-07-06T04:46:33;20.05;;;10.287500000000001;;
29172;SDS011;16223;47.966;-1.616;2022-07-06T04:47:33;22.5625;;;8.7625;;
29172;SDS011;16223;47.966;-1.616;2022-07-06T04:48:32;32.5;;;9.5;;
29172;SDS011;16223;47.966;-1.616;2022-07-06T04:49:32;23.0625;;;8.1625;;
29172;SDS011;16223;47.966;-1.616;2022-07-06T04:50:32;21.2125;;;8.0375;;
29172;SDS011;16223;47.966;-1.616;2022-07-06T04:51:32;26.5625;;;8.95;;
29172;SDS011;16223;47.966;-1.616;2022-07-06T04:52:32;23.674999999999997;;;8.8625;;
29172;SDS011;16223;47.966;-1.616;2022-07-06T04:53:33;24.8625;;;9.0;;
29172;SDS011;16223;47.966;-1.616;2022-07-06T04:54:32;28.0;;;10.4875;;
29172;SDS011;16223;47.966;-1.616;2022-07-06T04:55:32;20.037499999999998;;;8.4125;;
29172;SDS011;16223;47.966;-1.616;2022-07-06T04:56:32;22.65;;;8.9375;;
29172;SDS011;16223;47.966;-1.616;2022-07-06T04:57:32;26.3125;;;9.825;;
29172;SDS011;16223;47.966;-1.616;2022-07-06T04:58:32;16.2125;;;7.6;;
29172;SDS011;16223;47.966;-1.616;2022-07-06T04:59:32;26.125;;;10.8125;;
29172;SDS011;16223;47.966;-1.616;2022-07-06T05:00:32;38.75;;;10.0875;;
29172;SDS011;16223;47.966;-1.616;2022-07-06T05:01:32;18.3625;;;8.9375;;
29172;SDS011;16223;47.966;-1.616;2022-07-06T05:02:32;25.1875;;;8.5;;
29172;SDS011;16223;47.966;-1.616;2022-07-06T05:03:33;29.287499999999998;;;9.637500000000001;;
29172;SDS011;16223;47.966;-1.616;2022-07-06T05:04:33;25.1;;;8.674999999999999;;
29172;SDS011;16223;47.966;-1.616;2022-07-06T05:05:32;18.0;;;9.0875;;
29172;SDS011;16223;47.966;-1.616;2022-07-06T05:06:32;24.775;;;9.8;;
29172;SDS011;16223;47.966;-1.616;2022-07-06T05:07:32;37.9125;;;9.024999999999999;;
29172;SDS011;16223;47.966;-1.616;2022-07-06T05:08:33;17.5875;;;8.575;;
29172;SDS011;16223;47.966;-1.616;2022-07-06T05:09:33;24.6;;;9.837499999999999;;
29172;SDS011;16223;47.966;-1.616;2022-07-06T05:10:32;36.475;;;9.3125;;
29172;SDS011;16223;47.966;-1.616;2022-07-06T05:11:32;31.950000000000003;;;10.175;;
29172;SDS011;16223;47.966;-1.616;2022-07-06T05:12:32;24.85;;;7.262499999999999;;
29172;SDS011;16223;47.966;-1.616;2022-07-06T05:13:32;32.25;;;11.55;;
29172;SDS011;16223;47.966;-1.616;2022-07-06T05:14:32;22.3;;;7.5;;
29172;SDS011;16223;47.966;-1.616;2022-07-06T05:15:32;60.287499999999994;;;13.2;;